sensor_id;sensor_type;location;lat;lon;timestamp;temperature;humidity
7598;DHT22;3840;59.32098800;18.06423600;2022-08-02T00:01:31;16.70;99.90
7598;DHT22;3840;59.32098800;18.06423600;2022-08-02T00:03:57;16.70;99.90
7598;DHT22;3840;59.32098800;18.06423600;2022-08-02T00:06:23;16.70;99.90
7598;DHT22;3840;59.32098800;18.06423600;2022-08-02T00:08:48;16.70;99.90
7598;DHT22;3840;59.32098800;18.06423600;2022-08-02T00:11:14;16.70;99.90
7598;DHT22;3840;59.32098800;18.06423600;2022-08-02T00:13:40;16.70;99.90
7598;DHT22;3840;59.32098800;18.06423600;2022-08-02T00:16:06;16.60;99.90
7598;DHT22;3840;59.32098800;18.06423600;2022-08-02T00:18:32;16.60;99.90
7598;DHT22;3840;59.32098800;18.06423600;2022-08-02T00:20:57;16.50;99.90
7598;DHT22;3840;59.32098800;18.06423600;2022-08-02T00:23:23;16.50;99.90
7598;DHT22;3840;59.32098800;18.06423600;2022-08-02T00:25:49;16.50;99.90
7598;DHT22;3840;59.32098800;18.06423600;2022-08-02T00:28:14;16.50;99.90
7598;DHT22;3840;59.32098800;18.06423600;2022-08-02T00:30:40;16.50;99.90
7598;DHT22;3840;59.32098800;18.06423600;2022-08-02T00:33:06;16.50;99.90
7598;DHT22;3840;59.32098800;18.06423600;2022-08-02T00:35:33;16.50;99.90
7598;DHT22;3840;59.32098800;18.06423600;2022-08-02T00:37:59;16.40;99.90
7598;DHT22;3840;59.32098800;18.06423600;2022-08-02T00:40:25;16.40;99.90
7598;DHT22;3840;59.32098800;18.06423600;2022-08-02T00:43:05;16.30;99.90
7598;DHT22;3840;59.32098800;18.06423600;2022-08-02T00:45:33;16.30;99.90
7598;DHT22;3840;59.32098800;18.06423600;2022-08-02T00:47:59;16.30;99.90
7598;DHT22;3840;59.32098800;18.06423600;2022-08-02T00:50:25;16.30;99.90
7598;DHT22;3840;59.32098800;18.06423600;2022-08-02T00:52:51;16.40;99.90
7598;DHT22;3840;59.32098800;18.06423600;2022-08-02T00:55:17;16.30;99.90
7598;DHT22;3840;59.32098800;18.06423600;2022-08-02T00:57:43;16.20;99.90
7598;DHT22;3840;59.32098800;18.06423600;2022-08-02T01:00:09;16.20;99.90
7598;DHT22;3840;59.32098800;18.06423600;2022-08-02T01:02:35;16.20;99.90
7598;DHT22;3840;59.32098800;18.06423600;2022-08-02T01:05:00;16.20;99.90
7598;DHT22;3840;59.32098800;18.06423600;2022-08-02T01:07:26;16.20;99.90
7598;DHT22;3840;59.32098800;18.06423600;2022-08-02T01:09:52;16.20;99.90
7598;DHT22;3840;59.32098800;18.06423600;2022-08-02T01:12:18;16.20;99.90
7598;DHT22;3840;59.32098800;18.06423600;2022-08-02T01:14:46;16.20;99.90
7598;DHT22;3840;59.32098800;18.06423600;2022-08-02T01:17:15;16.20;99.90
7598;DHT22;3840;59.32098800;18.06423600;2022-08-02T01:25:35;16.10;99.90
7598;DHT22;3840;59.32098800;18.06423600;2022-08-02T01:33:57;16.00;99.90
7598;DHT22;3840;59.32098800;18.06423600;2022-08-02T01:36:30;16.00;99.90
7598;DHT22;3840;59.32098800;18.06423600;2022-08-02T01:38:58;16.00;99.90
7598;DHT22;3840;59.32098800;18.06423600;2022-08-02T01:41:25;15.90;99.90
7598;DHT22;3840;59.32098800;18.06423600;2022-08-02T01:43:59;15.90;99.90
7598;DHT22;3840;59.32098800;18.06423600;2022-08-02T01:46:26;15.90;99.90
7598;DHT22;3840;59.32098800;18.06423600;2022-08-02T01:48:55;15.90;99.90
7598;DHT22;3840;59.32098800;18.06423600;2022-08-02T01:51:22;15.80;99.90
7598;DHT22;3840;59.32098800;18.06423600;2022-08-02T01:54:11;15.80;99.90
7598;DHT22;3840;59.32098800;18.06423600;2022-08-02T01:56:38;15.80;99.90
7598;DHT22;3840;59.32098800;18.06423600;2022-08-02T01:59:06;15.80;99.90
7598;DHT22;3840;59.32098800;18.06423600;2022-08-02T02:01:35;15.80;99.90
7598;DHT22;3840;59.32098800;18.06423600;2022-08-02T02:04:02;15.80;99.90
7598;DHT22;3840;59.32098800;18.06423600;2022-08-02T02:06:30;15.70;99.90
7598;DHT22;3840;59.32098800;18.06423600;2022-08-02T02:08:58;15.70;99.90
7598;DHT22;3840;59.32098800;18.06423600;2022-08-02T02:11:24;15.70;99.90
7598;DHT22;3840;59.32098800;18.06423600;2022-08-02T02:13:50;15.70;99.90
7598;DHT22;3840;59.32098800;18.06423600;2022-08-02T02:16:18;15.70;99.90
7598;DHT22;3840;59.32098800;18.06423600;2022-08-02T02:18:46;15.70;99.90
7598;DHT22;3840;59.32098800;18.06423600;2022-08-02T02:21:13;15.70;99.90
7598;DHT22;3840;59.32098800;18.06423600;2022-08-02T02:23:39;15.70;99.90
7598;DHT22;3840;59.32098800;18.06423600;2022-08-02T02:26:05;15.60;99.90
7598;DHT22;3840;59.32098800;18.06423600;2022-08-02T02:28:34;15.60;99.90
7598;DHT22;3840;59.32098800;18.06423600;2022-08-02T02:31:07;15.60;99.90
7598;DHT22;3840;59.32098800;18.06423600;2022-08-02T02:33:40;15.60;99.90
7598;DHT22;3840;59.32098800;18.06423600;2022-08-02T02:36:07;15.60;99.90
7598;DHT22;3840;59.32098800;18.06423600;2022-08-02T02:38:33;15.60;99.90
7598;DHT22;3840;59.32098800;18.06423600;2022-08-02T02:41:03;15.60;99.90
7598;DHT22;3840;59.32098800;18.06423600;2022-08-02T02:43:31;15.50;99.90
7598;DHT22;3840;59.32098800;18.06423600;2022-08-02T02:45:57;15.60;99.90
7598;DHT22;3840;59.32098800;18.06423600;2022-08-02T02:48:24;15.50;99.90
7598;DHT22;3840;59.32098800;18.06423600;2022-08-02T02:50:53;15.60;99.90
7598;DHT22;3840;59.32098800;18.06423600;2022-08-02T02:53:20;15.60;99.90
7598;DHT22;3840;59.32098800;18.06423600;2022-08-02T02:55:47;15.60;99.90
7598;DHT22;3840;59.32098800;18.06423600;2022-08-02T02:58:13;15.60;99.90
7598;DHT22;3840;59.32098800;18.06423600;2022-08-02T03:00:39;15.60;99.90
7598;DHT22;3840;59.32098800;18.06423600;2022-08-02T03:03:24;15.70;99.90
7598;DHT22;3840;59.32098800;18.06423600;2022-08-02T03:05:50;16.10;99.90
7598;DHT22;3840;59.32098800;18.06423600;2022-08-02T03:08:16;16.50;99.90
7598;DHT22;3840;59.32098800;18.06423600;2022-08-02T03:10:43;16.70;99.90
7598;DHT22;3840;59.32098800;18.06423600;2022-08-02T03:13:10;16.90;99.90
7598;DHT22;3840;59.32098800;18.06423600;2022-08-02T03:15:37;17.20;99.90
7598;DHT22;3840;59.32098800;18.06423600;2022-08-02T03:18:04;17.40;99.90
7598;DHT22;3840;59.32098800;18.06423600;2022-08-02T03:20:32;17.60;99.90
7598;DHT22;3840;59.32098800;18.06423600;2022-08-02T03:22:58;17.60;99.90
7598;DHT22;3840;59.32098800;18.06423600;2022-08-02T03:25:23;17.70;99.90
7598;DHT22;3840;59.32098800;18.06423600;2022-08-02T03:27:49;17.90;99.90
7598;DHT22;3840;59.32098800;18.06423600;2022-08-02T03:30:15;17.80;99.90
7598;DHT22;3840;59.32098800;18.06423600;2022-08-02T03:32:44;18.10;99.90
7598;DHT22;3840;59.32098800;18.06423600;2022-08-02T03:35:13;18.10;99.90
7598;DHT22;3840;59.32098800;18.06423600;2022-08-02T03:37:39;18.00;99.90
7598;DHT22;3840;59.32098800;18.06423600;2022-08-02T03:40:07;17.70;99.90
7598;DHT22;3840;59.32098800;18.06423600;2022-08-02T03:42:33;18.00;99.90
7598;DHT22;3840;59.32098800;18.06423600;2022-08-02T03:45:01;18.50;99.90
7598;DHT22;3840;59.32098800;18.06423600;2022-08-02T03:47:27;18.50;99.90
7598;DHT22;3840;59.32098800;18.06423600;2022-08-02T03:49:54;18.90;99.90
7598;DHT22;3840;59.32098800;18.06423600;2022-08-02T03:52:22;18.30;99.90
7598;DHT22;3840;59.32098800;18.06423600;2022-08-02T03:54:47;16.90;99.90
7598;DHT22;3840;59.32098800;18.06423600;2022-08-02T03:57:13;16.40;99.90
7598;DHT22;3840;59.32098800;18.06423600;2022-08-02T03:59:41;16.10;99.90
7598;DHT22;3840;59.32098800;18.06423600;2022-08-02T04:02:07;15.70;99.90
7598;DHT22;3840;59.32098800;18.06423600;2022-08-02T04:04:33;15.00;99.90
7598;DHT22;3840;59.32098800;18.06423600;2022-08-02T04:06:59;14.70;99.90
7598;DHT22;3840;59.32098800;18.06423600;2022-08-02T04:09:24;14.60;99.90
7598;DHT22;3840;59.32098800;18.06423600;2022-08-02T04:11:50;14.70;99.90
7598;DHT22;3840;59.32098800;18.06423600;2022-08-02T04:14:16;14.60;99.90
7598;DHT22;3840;59.32098800;18.06423600;2022-08-02T04:19:13;14.90;99.90
7598;DHT22;3840;59.32098800;18.06423600;2022-08-02T04:21:40;14.80;99.90
7598;DHT22;3840;59.32098800;18.06423600;2022-08-02T04:24:07;14.80;99.90
7598;DHT22;3840;59.32098800;18.06423600;2022-08-02T04:26:35;14.80;99.90
7598;DHT22;3840;59.32098800;18.06423600;2022-08-02T04:29:02;14.90;99.90
7598;DHT22;3840;59.32098800;18.06423600;2022-08-02T04:31:28;14.90;99.90
7598;DHT22;3840;59.32098800;18.06423600;2022-08-02T04:33:54;14.80;99.90
7598;DHT22;3840;59.32098800;18.06423600;2022-08-02T04:36:20;14.70;99.90
7598;DHT22;3840;59.32098800;18.06423600;2022-08-02T04:38:48;14.70;99.90
7598;DHT22;3840;59.32098800;18.06423600;2022-08-02T04:41:14;14.80;99.90
7598;DHT22;3840;59.32098800;18.06423600;2022-08-02T04:43:40;14.60;99.90
7598;DHT22;3840;59.32098800;18.06423600;2022-08-02T04:46:05;14.40;99.90
7598;DHT22;3840;59.32098800;18.06423600;2022-08-02T04:48:31;14.30;99.90
7598;DHT22;3840;59.32098800;18.06423600;2022-08-02T04:50:57;14.30;99.90
7598;DHT22;3840;59.32098800;18.06423600;2022-08-02T04:53:23;14.40;99.90
7598;DHT22;3840;59.32098800;18.06423600;2022-08-02T04:55:49;14.60;99.90
7598;DHT22;3840;59.32098800;18.06423600;2022-08-02T04:58:15;14.50;99.90
7598;DHT22;3840;59.32098800;18.06423600;2022-08-02T05:00:40;14.50;99.90
7598;DHT22;3840;59.32098800;18.06423600;2022-08-02T05:03:06;14.50;99.90
7598;DHT22;3840;59.32098800;18.06423600;2022-08-02T05:05:32;14.30;99.90
7598;DHT22;3840;59.32098800;18.06423600;2022-08-02T05:07:58;14.30;99.90
7598;DHT22;3840;59.32098800;18.06423600;2022-08-02T05:10:24;14.40;99.90
7598;DHT22;3840;59.32098800;18.06423600;2022-08-02T05:12:49;14.50;99.90
7598;DHT22;3840;59.32098800;18.06423600;2022-08-02T05:15:15;14.60;99.90
7598;DHT22;3840;59.32098800;18.06423600;2022-08-02T05:17:44;14.70;99.90
7598;DHT22;3840;59.32098800;18.06423600;2022-08-02T05:20:10;14.60;99.90
7598;DHT22;3840;59.32098800;18.06423600;2022-08-02T05:22:38;14.70;99.90
7598;DHT22;3840;59.32098800;18.06423600;2022-08-02T05:25:04;14.60;99.90
7598;DHT22;3840;59.32098800;18.06423600;2022-08-02T05:27:30;14.70;99.90
7598;DHT22;3840;59.32098800;18.06423600;2022-08-02T05:29:58;14.70;99.90
7598;DHT22;3840;59.32098800;18.06423600;2022-08-02T05:32:24;14.60;99.90
7598;DHT22;3840;59.32098800;18.06423600;2022-08-02T05:34:49;14.60;99.90
7598;DHT22;3840;59.32098800;18.06423600;2022-08-02T05:37:15;14.60;99.90
7598;DHT22;3840;59.32098800;18.06423600;2022-08-02T05:39:41;14.60;99.90
7598;DHT22;3840;59.32098800;18.06423600;2022-08-02T05:42:06;14.70;99.90
7598;DHT22;3840;59.32098800;18.06423600;2022-08-02T05:44:32;14.60;99.90
7598;DHT22;3840;59.32098800;18.06423600;2022-08-02T05:46:58;14.70;99.90
7598;DHT22;3840;59.32098800;18.06423600;2022-08-02T05:49:23;14.80;99.90
7598;DHT22;3840;59.32098800;18.06423600;2022-08-02T05:52:25;15.00;99.90
7598;DHT22;3840;59.32098800;18.06423600;2022-08-02T06:00:11;15.00;99.90
7598;DHT22;3840;59.32098800;18.06423600;2022-08-02T06:05:39;15.20;99.90
7598;DHT22;3840;59.32098800;18.06423600;2022-08-02T06:08:06;15.20;99.90
7598;DHT22;3840;59.32098800;18.06423600;2022-08-02T06:10:36;15.10;99.90
7598;DHT22;3840;59.32098800;18.06423600;2022-08-02T06:13:13;15.10;99.90
7598;DHT22;3840;59.32098800;18.06423600;2022-08-02T06:15:41;15.00;99.90
7598;DHT22;3840;59.32098800;18.06423600;2022-08-02T06:18:08;15.00;99.90
7598;DHT22;3840;59.32098800;18.06423600;2022-08-02T06:20:35;15.00;99.90
7598;DHT22;3840;59.32098800;18.06423600;2022-08-02T06:23:05;15.20;99.90
7598;DHT22;3840;59.32098800;18.06423600;2022-08-02T06:25:32;15.30;99.90
7598;DHT22;3840;59.32098800;18.06423600;2022-08-02T06:28:00;15.30;99.90
7598;DHT22;3840;59.32098800;18.06423600;2022-08-02T06:30:27;15.20;99.90
7598;DHT22;3840;59.32098800;18.06423600;2022-08-02T06:32:52;15.30;99.90
7598;DHT22;3840;59.32098800;18.06423600;2022-08-02T06:35:18;15.30;99.90
7598;DHT22;3840;59.32098800;18.06423600;2022-08-02T06:37:51;15.60;99.90
7598;DHT22;3840;59.32098800;18.06423600;2022-08-02T06:40:43;15.60;99.90
7598;DHT22;3840;59.32098800;18.06423600;2022-08-02T06:43:46;15.50;99.90
7598;DHT22;3840;59.32098800;18.06423600;2022-08-02T06:46:15;15.40;99.90
7598;DHT22;3840;59.32098800;18.06423600;2022-08-02T06:48:40;15.40;99.90
7598;DHT22;3840;59.32098800;18.06423600;2022-08-02T06:51:06;15.50;99.90
7598;DHT22;3840;59.32098800;18.06423600;2022-08-02T06:53:32;15.60;99.90
7598;DHT22;3840;59.32098800;18.06423600;2022-08-02T06:55:58;15.70;99.90
7598;DHT22;3840;59.32098800;18.06423600;2022-08-02T06:58:24;15.80;99.90
7598;DHT22;3840;59.32098800;18.06423600;2022-08-02T07:00:50;16.00;99.90
7598;DHT22;3840;59.32098800;18.06423600;2022-08-02T07:03:16;16.20;99.90
7598;DHT22;3840;59.32098800;18.06423600;2022-08-02T07:05:42;16.10;99.90
7598;DHT22;3840;59.32098800;18.06423600;2022-08-02T07:08:16;16.30;99.90
7598;DHT22;3840;59.32098800;18.06423600;2022-08-02T07:10:42;16.50;99.90
7598;DHT22;3840;59.32098800;18.06423600;2022-08-02T07:13:08;16.90;99.90
7598;DHT22;3840;59.32098800;18.06423600;2022-08-02T07:15:34;17.00;99.90
7598;DHT22;3840;59.32098800;18.06423600;2022-08-02T07:18:00;17.10;99.90
7598;DHT22;3840;59.32098800;18.06423600;2022-08-02T07:20:25;17.00;99.90
7598;DHT22;3840;59.32098800;18.06423600;2022-08-02T07:22:51;17.20;99.90
7598;DHT22;3840;59.32098800;18.06423600;2022-08-02T07:25:17;17.20;99.90
7598;DHT22;3840;59.32098800;18.06423600;2022-08-02T07:27:42;17.10;99.90
7598;DHT22;3840;59.32098800;18.06423600;2022-08-02T07:30:09;17.30;99.90
7598;DHT22;3840;59.32098800;18.06423600;2022-08-02T07:32:35;17.20;99.90
7598;DHT22;3840;59.32098800;18.06423600;2022-08-02T07:35:01;17.20;99.90
7598;DHT22;3840;59.32098800;18.06423600;2022-08-02T07:37:30;17.10;99.90
7598;DHT22;3840;59.32098800;18.06423600;2022-08-02T07:39:56;17.30;99.90
7598;DHT22;3840;59.32098800;18.06423600;2022-08-02T07:42:22;17.40;99.90
7598;DHT22;3840;59.32098800;18.06423600;2022-08-02T07:44:48;17.70;99.90
7598;DHT22;3840;59.32098800;18.06423600;2022-08-02T07:47:14;18.10;99.90
7598;DHT22;3840;59.32098800;18.06423600;2022-08-02T07:49:40;18.00;99.90
7598;DHT22;3840;59.32098800;18.06423600;2022-08-02T07:52:05;17.80;99.90
7598;DHT22;3840;59.32098800;18.06423600;2022-08-02T07:54:31;17.70;99.90
7598;DHT22;3840;59.32098800;18.06423600;2022-08-02T07:56:57;17.80;99.90
7598;DHT22;3840;59.32098800;18.06423600;2022-08-02T07:59:22;17.50;99.90
7598;DHT22;3840;59.32098800;18.06423600;2022-08-02T08:01:48;17.90;99.90
7598;DHT22;3840;59.32098800;18.06423600;2022-08-02T08:04:15;17.60;99.90
7598;DHT22;3840;59.32098800;18.06423600;2022-08-02T08:06:42;17.40;99.90
7598;DHT22;3840;59.32098800;18.06423600;2022-08-02T08:09:09;17.50;99.90
7598;DHT22;3840;59.32098800;18.06423600;2022-08-02T08:11:35;17.50;99.90
7598;DHT22;3840;59.32098800;18.06423600;2022-08-02T08:14:00;17.30;99.90
7598;DHT22;3840;59.32098800;18.06423600;2022-08-02T08:16:26;17.30;99.90
7598;DHT22;3840;59.32098800;18.06423600;2022-08-02T08:18:54;17.30;99.90
7598;DHT22;3840;59.32098800;18.06423600;2022-08-02T08:21:20;17.20;99.90
7598;DHT22;3840;59.32098800;18.06423600;2022-08-02T08:23:46;17.30;99.90
7598;DHT22;3840;59.32098800;18.06423600;2022-08-02T08:26:11;17.10;99.90
7598;DHT22;3840;59.32098800;18.06423600;2022-08-02T08:28:37;17.20;99.90
7598;DHT22;3840;59.32098800;18.06423600;2022-08-02T08:31:03;17.20;99.90
7598;DHT22;3840;59.32098800;18.06423600;2022-08-02T08:33:29;17.30;99.90
7598;DHT22;3840;59.32098800;18.06423600;2022-08-02T08:35:55;17.40;99.90
7598;DHT22;3840;59.32098800;18.06423600;2022-08-02T08:38:21;17.40;99.90
7598;DHT22;3840;59.32098800;18.06423600;2022-08-02T08:40:50;17.40;99.90
7598;DHT22;3840;59.32098800;18.06423600;2022-08-02T08:43:16;17.50;99.90
7598;DHT22;3840;59.32098800;18.06423600;2022-08-02T08:45:45;17.50;99.90
7598;DHT22;3840;59.32098800;18.06423600;2022-08-02T08:48:13;17.60;99.90
7598;DHT22;3840;59.32098800;18.06423600;2022-08-02T08:51:06;17.60;99.90
7598;DHT22;3840;59.32098800;18.06423600;2022-08-02T08:53:39;17.70;99.90
7598;DHT22;3840;59.32098800;18.06423600;2022-08-02T08:56:06;17.80;99.90
7598;DHT22;3840;59.32098800;18.06423600;2022-08-02T08:58:33;17.70;99.90
7598;DHT22;3840;59.32098800;18.06423600;2022-08-02T09:00:59;17.70;99.90
7598;DHT22;3840;59.32098800;18.06423600;2022-08-02T09:03:24;17.70;99.90
7598;DHT22;3840;59.32098800;18.06423600;2022-08-02T09:05:50;17.80;99.90
7598;DHT22;3840;59.32098800;18.06423600;2022-08-02T09:08:16;17.90;99.90
7598;DHT22;3840;59.32098800;18.06423600;2022-08-02T09:10:45;17.90;99.90
7598;DHT22;3840;59.32098800;18.06423600;2022-08-02T09:13:16;18.00;99.90
7598;DHT22;3840;59.32098800;18.06423600;2022-08-02T09:16:05;18.00;99.90
7598;DHT22;3840;59.32098800;18.06423600;2022-08-02T09:18:37;18.00;99.90
7598;DHT22;3840;59.32098800;18.06423600;2022-08-02T09:21:06;18.00;99.90
7598;DHT22;3840;59.32098800;18.06423600;2022-08-02T09:23:38;18.00;99.90
7598;DHT22;3840;59.32098800;18.06423600;2022-08-02T09:26:10;18.00;99.90
7598;DHT22;3840;59.32098800;18.06423600;2022-08-02T09:28:38;18.10;99.90
7598;DHT22;3840;59.32098800;18.06423600;2022-08-02T09:31:12;18.20;99.90
7598;DHT22;3840;59.32098800;18.06423600;2022-08-02T09:33:39;18.30;99.90
7598;DHT22;3840;59.32098800;18.06423600;2022-08-02T09:36:10;18.30;99.90
7598;DHT22;3840;59.32098800;18.06423600;2022-08-02T09:38:38;18.30;99.90
7598;DHT22;3840;59.32098800;18.06423600;2022-08-02T09:41:05;18.40;99.90
7598;DHT22;3840;59.32098800;18.06423600;2022-08-02T09:43:44;18.50;99.90
7598;DHT22;3840;59.32098800;18.06423600;2022-08-02T09:46:18;18.40;99.90
7598;DHT22;3840;59.32098800;18.06423600;2022-08-02T09:48:47;18.50;99.90
7598;DHT22;3840;59.32098800;18.06423600;2022-08-02T09:51:39;18.50;99.90
7598;DHT22;3840;59.32098800;18.06423600;2022-08-02T09:54:06;18.60;99.90
7598;DHT22;3840;59.32098800;18.06423600;2022-08-02T09:56:42;18.60;99.90
7598;DHT22;3840;59.32098800;18.06423600;2022-08-02T09:59:08;18.80;99.90
7598;DHT22;3840;59.32098800;18.06423600;2022-08-02T10:01:35;18.80;99.90
7598;DHT22;3840;59.32098800;18.06423600;2022-08-02T10:04:06;18.80;99.90
7598;DHT22;3840;59.32098800;18.06423600;2022-08-02T10:06:33;18.90;99.90
7598;DHT22;3840;59.32098800;18.06423600;2022-08-02T10:08:59;18.90;99.90
7598;DHT22;3840;59.32098800;18.06423600;2022-08-02T10:11:26;19.00;99.90
7598;DHT22;3840;59.32098800;18.06423600;2022-08-02T10:13:53;19.00;99.90
7598;DHT22;3840;59.32098800;18.06423600;2022-08-02T10:16:21;19.20;99.90
7598;DHT22;3840;59.32098800;18.06423600;2022-08-02T10:18:52;19.20;99.90
7598;DHT22;3840;59.32098800;18.06423600;2022-08-02T10:24:08;19.20;99.90
7598;DHT22;3840;59.32098800;18.06423600;2022-08-02T10:26:34;19.30;99.90
7598;DHT22;3840;59.32098800;18.06423600;2022-08-02T10:29:01;19.30;99.90
7598;DHT22;3840;59.32098800;18.06423600;2022-08-02T10:34:26;19.50;99.90
7598;DHT22;3840;59.32098800;18.06423600;2022-08-02T10:36:53;19.60;99.90
7598;DHT22;3840;59.32098800;18.06423600;2022-08-02T10:39:19;19.70;99.90
7598;DHT22;3840;59.32098800;18.06423600;2022-08-02T10:41:50;19.40;99.90
7598;DHT22;3840;59.32098800;18.06423600;2022-08-02T10:44:22;19.80;99.90
7598;DHT22;3840;59.32098800;18.06423600;2022-08-02T10:46:49;19.90;99.90
7598;DHT22;3840;59.32098800;18.06423600;2022-08-02T10:49:21;20.00;99.90
7598;DHT22;3840;59.32098800;18.06423600;2022-08-02T10:54:39;20.40;99.90
7598;DHT22;3840;59.32098800;18.06423600;2022-08-02T10:59:42;20.60;99.90
7598;DHT22;3840;59.32098800;18.06423600;2022-08-02T11:02:08;20.60;99.90
7598;DHT22;3840;59.32098800;18.06423600;2022-08-02T11:09:32;20.90;99.90
7598;DHT22;3840;59.32098800;18.06423600;2022-08-02T11:12:06;20.90;99.90
7598;DHT22;3840;59.32098800;18.06423600;2022-08-02T11:14:42;20.60;99.90
7598;DHT22;3840;59.32098800;18.06423600;2022-08-02T11:17:15;21.10;99.90
7598;DHT22;3840;59.32098800;18.06423600;2022-08-02T11:22:36;21.30;99.90
7598;DHT22;3840;59.32098800;18.06423600;2022-08-02T11:27:49;21.50;99.90
7598;DHT22;3840;59.32098800;18.06423600;2022-08-02T11:30:16;21.70;99.90
7598;DHT22;3840;59.32098800;18.06423600;2022-08-02T11:32:42;21.60;99.90
7598;DHT22;3840;59.32098800;18.06423600;2022-08-02T11:35:08;21.70;99.90
7598;DHT22;3840;59.32098800;18.06423600;2022-08-02T11:37:43;21.70;99.90
7598;DHT22;3840;59.32098800;18.06423600;2022-08-02T11:40:15;21.80;99.90
7598;DHT22;3840;59.32098800;18.06423600;2022-08-02T11:42:43;21.90;99.90
7598;DHT22;3840;59.32098800;18.06423600;2022-08-02T11:45:11;22.00;99.90
7598;DHT22;3840;59.32098800;18.06423600;2022-08-02T11:47:45;21.90;99.90
7598;DHT22;3840;59.32098800;18.06423600;2022-08-02T11:50:11;21.90;99.90
7598;DHT22;3840;59.32098800;18.06423600;2022-08-02T11:52:37;22.00;99.90
7598;DHT22;3840;59.32098800;18.06423600;2022-08-02T11:55:05;21.90;99.90
7598;DHT22;3840;59.32098800;18.06423600;2022-08-02T11:57:32;21.90;99.90
7598;DHT22;3840;59.32098800;18.06423600;2022-08-02T11:59:58;21.70;99.90
7598;DHT22;3840;59.32098800;18.06423600;2022-08-02T12:02:26;21.60;99.90
7598;DHT22;3840;59.32098800;18.06423600;2022-08-02T12:04:54;21.50;99.90
7598;DHT22;3840;59.32098800;18.06423600;2022-08-02T12:07:29;21.50;99.90
7598;DHT22;3840;59.32098800;18.06423600;2022-08-02T12:10:03;21.50;99.90
7598;DHT22;3840;59.32098800;18.06423600;2022-08-02T12:12:29;21.60;99.90
7598;DHT22;3840;59.32098800;18.06423600;2022-08-02T12:14:54;21.60;99.90
7598;DHT22;3840;59.32098800;18.06423600;2022-08-02T12:17:27;21.70;99.90
7598;DHT22;3840;59.32098800;18.06423600;2022-08-02T12:20:11;21.90;99.90
7598;DHT22;3840;59.32098800;18.06423600;2022-08-02T12:22:38;21.70;99.90
7598;DHT22;3840;59.32098800;18.06423600;2022-08-02T12:25:16;21.70;99.90
7598;DHT22;3840;59.32098800;18.06423600;2022-08-02T12:27:42;21.80;99.90
7598;DHT22;3840;59.32098800;18.06423600;2022-08-02T12:30:16;21.90;99.90
7598;DHT22;3840;59.32098800;18.06423600;2022-08-02T12:32:43;21.90;99.90
7598;DHT22;3840;59.32098800;18.06423600;2022-08-02T12:35:15;21.80;99.90
7598;DHT22;3840;59.32098800;18.06423600;2022-08-02T12:37:43;21.80;99.90
7598;DHT22;3840;59.32098800;18.06423600;2022-08-02T12:40:20;21.70;99.90
7598;DHT22;3840;59.32098800;18.06423600;2022-08-02T12:43:00;21.80;99.90
7598;DHT22;3840;59.32098800;18.06423600;2022-08-02T12:45:27;21.80;99.90
7598;DHT22;3840;59.32098800;18.06423600;2022-08-02T12:47:56;21.80;99.90
7598;DHT22;3840;59.32098800;18.06423600;2022-08-02T12:50:30;21.60;99.90
7598;DHT22;3840;59.32098800;18.06423600;2022-08-02T12:53:07;21.70;99.90
7598;DHT22;3840;59.32098800;18.06423600;2022-08-02T12:55:35;21.70;99.90
7598;DHT22;3840;59.32098800;18.06423600;2022-08-02T12:58:05;21.90;99.90
7598;DHT22;3840;59.32098800;18.06423600;2022-08-02T13:00:35;22.10;99.90
7598;DHT22;3840;59.32098800;18.06423600;2022-08-02T13:03:02;22.00;99.90
7598;DHT22;3840;59.32098800;18.06423600;2022-08-02T13:05:28;22.00;99.90
7598;DHT22;3840;59.32098800;18.06423600;2022-08-02T13:07:55;22.10;99.90
7598;DHT22;3840;59.32098800;18.06423600;2022-08-02T13:10:21;22.20;99.90
7598;DHT22;3840;59.32098800;18.06423600;2022-08-02T13:12:48;22.30;99.90
7598;DHT22;3840;59.32098800;18.06423600;2022-08-02T13:15:15;22.40;99.90
7598;DHT22;3840;59.32098800;18.06423600;2022-08-02T13:17:41;22.50;99.90
7598;DHT22;3840;59.32098800;18.06423600;2022-08-02T13:20:07;22.50;99.90
7598;DHT22;3840;59.32098800;18.06423600;2022-08-02T13:22:34;22.50;99.90
7598;DHT22;3840;59.32098800;18.06423600;2022-08-02T13:25:00;22.60;99.90
7598;DHT22;3840;59.32098800;18.06423600;2022-08-02T13:27:26;22.40;99.90
7598;DHT22;3840;59.32098800;18.06423600;2022-08-02T13:29:53;22.60;99.90
7598;DHT22;3840;59.32098800;18.06423600;2022-08-02T13:32:20;22.40;99.90
7598;DHT22;3840;59.32098800;18.06423600;2022-08-02T13:34:46;22.40;99.90
7598;DHT22;3840;59.32098800;18.06423600;2022-08-02T13:37:12;22.70;99.90
7598;DHT22;3840;59.32098800;18.06423600;2022-08-02T13:39:38;22.80;99.90
7598;DHT22;3840;59.32098800;18.06423600;2022-08-02T13:42:04;22.70;99.90
7598;DHT22;3840;59.32098800;18.06423600;2022-08-02T13:44:30;22.40;99.90
7598;DHT22;3840;59.32098800;18.06423600;2022-08-02T13:46:55;22.40;99.90
7598;DHT22;3840;59.32098800;18.06423600;2022-08-02T13:49:21;22.40;99.90
7598;DHT22;3840;59.32098800;18.06423600;2022-08-02T13:51:47;22.40;99.90
7598;DHT22;3840;59.32098800;18.06423600;2022-08-02T13:54:13;22.40;99.90
7598;DHT22;3840;59.32098800;18.06423600;2022-08-02T13:56:39;22.30;99.90
7598;DHT22;3840;59.32098800;18.06423600;2022-08-02T13:59:05;22.30;99.90
7598;DHT22;3840;59.32098800;18.06423600;2022-08-02T14:01:31;22.40;99.90
7598;DHT22;3840;59.32098800;18.06423600;2022-08-02T14:03:57;22.20;99.90
7598;DHT22;3840;59.32098800;18.06423600;2022-08-02T14:06:24;22.20;99.90
7598;DHT22;3840;59.32098800;18.06423600;2022-08-02T14:08:50;22.20;99.90
7598;DHT22;3840;59.32098800;18.06423600;2022-08-02T14:11:16;22.10;99.90
7598;DHT22;3840;59.32098800;18.06423600;2022-08-02T14:13:42;22.20;99.90
7598;DHT22;3840;59.32098800;18.06423600;2022-08-02T14:16:08;22.30;99.90
7598;DHT22;3840;59.32098800;18.06423600;2022-08-02T14:18:34;22.40;99.90
7598;DHT22;3840;59.32098800;18.06423600;2022-08-02T14:21:00;22.40;99.90
7598;DHT22;3840;59.32098800;18.06423600;2022-08-02T14:23:25;22.40;99.90